Airfield :
LOGIN :

Register | Disclaimer

   EN    FR    IT 

 










Legend :    VFR   Marginal VFR   IFR   Intensive IFR   Very Intensive IFR
Visi :
Ceiling :
>= 8 km
>= 3000ft
5 to 8 km
1000 to 3000 ft
1500m to 5 km
500 to 1000 ft
800 to 1500m
200 to 500 ft
< 800m
< 200 ft
Symbols :   Thunderstorms  Fog  Heavy snow  Heavy precipitations  Wind > 20 kt
SIGMETs :     Misc.  Thunderstorms  Icing  Turbulence  Mountain Waves  Volcanic Ashes






- Airport Elevation : 267 ft


EGDR - Culdrose Navy

CURRENT METAR :
  • 251024Z 34012KT 9999 SCT008 SCT012 15/13 Q1019 NOSIG RMK GRN GRN

EXPIRED METARs :
  • 250950Z 33009KT 8000 -RA FEW008 BKN010 14/12 Q1019 NOSIG RMK GRN GRN
  • 250926Z 34011KT 4000 -DZ FEW006 BKN008 14/13 Q1019 TEMPO SCT006 RMK GRN TEMPO YLO1
  • 250850Z 34011KT 8000 -DZ SCT006 SCT008 15/14 Q1019 YLO1 NOSIG RMK YLO1 YLO1
  • 250822Z 34010KT 6000 -DZ FEW004 SCT006 14/14 Q1020 TEMPO 4000 -RADZ SCT004 RMK YLO1 TEMPO YLO2
  • 250750Z 32009KT 3000 -DZ SCT004 SCT006 BKN020 14/14 Q1020 NOSIG RMK YLO2 YLO2

TAF AMD TAF EGDR
Valid from the 25 at 09:00 until the 25 at 18:00 UTC


250837Z 2509/2518 33012KT 6000 -RADZ FEW005 SCT007
TEMPO 2509/2510 SCT005
BECMG 2509/2511 9999 NSW SCT018
TEMPO 2510/2518 FEW018



MET'MAP, your aeronautical weather chart ! - Copyright ORBIFLY December 2007 - Disclaimer

ORBIFLY MET'MAP TEAM :

Programming & Development : Alexandra Zaïnal
Concept & original design : Baudouin d'Aumeries
Assistance for programming : Marc-Olivier Méhu
Technical & hardware support : Manuel Goepfert

Contact : metmap@orbifly.com




SOURCES & CREDITS :

   NOAA